createdAt,value
2018-11-01T00:00:08.352Z,3.33
2018-11-01T00:02:36.825Z,3.60
2018-11-01T00:05:05.246Z,3.40
2018-11-01T00:07:33.626Z,3.53
2018-11-01T00:10:02.105Z,3.00
2018-11-01T00:12:39.878Z,3.40
2018-11-01T00:15:08.981Z,3.00
2018-11-01T00:17:37.628Z,3.57
2018-11-01T00:20:07.692Z,3.00
2018-11-01T00:22:36.125Z,3.33
2018-11-01T00:25:05.040Z,3.10
2018-11-01T00:27:33.458Z,3.37
2018-11-01T00:30:01.844Z,2.93
2018-11-01T00:32:30.225Z,3.60
2018-11-01T00:34:58.629Z,3.00
2018-11-01T00:37:27.045Z,3.13
2018-11-01T00:39:55.464Z,3.10
2018-11-01T00:42:23.892Z,3.90
2018-11-01T00:44:52.300Z,3.40
2018-11-01T00:47:20.727Z,3.70
2018-11-01T00:49:49.313Z,3.33
2018-11-01T00:52:17.697Z,3.17
2018-11-01T00:54:46.088Z,3.50
2018-11-01T00:57:14.773Z,3.47
2018-11-01T00:59:43.225Z,3.20
2018-11-01T01:02:11.657Z,3.40
2018-11-01T01:04:40.044Z,3.40
2018-11-01T01:07:08.535Z,3.43
2018-11-01T01:09:36.976Z,3.53
2018-11-01T01:12:06.376Z,3.53
2018-11-01T01:14:34.852Z,3.80
2018-11-01T01:17:03.303Z,3.63
2018-11-01T01:19:31.662Z,3.20
2018-11-01T01:22:00.075Z,3.30
2018-11-01T01:24:28.458Z,3.43
2018-11-01T01:26:56.872Z,3.33
2018-11-01T01:29:25.257Z,3.10
2018-11-01T01:31:53.639Z,3.37
2018-11-01T01:34:22.151Z,3.33
2018-11-01T01:36:50.518Z,3.23
2018-11-01T01:39:18.949Z,3.20
2018-11-01T01:41:47.332Z,3.10
2018-11-01T01:44:15.800Z,3.00
2018-11-01T01:46:44.231Z,3.40
2018-11-01T01:49:12.664Z,2.90
2018-11-01T01:51:41.072Z,3.73
2018-11-01T01:54:09.479Z,3.10
2018-11-01T01:56:37.861Z,3.40
2018-11-01T01:59:07.336Z,3.40
2018-11-01T02:01:35.718Z,3.63
2018-11-01T02:04:04.165Z,3.40
2018-11-01T02:06:32.640Z,3.77
2018-11-01T02:09:01.590Z,3.20
2018-11-01T02:11:29.979Z,3.00
2018-11-01T02:13:58.416Z,3.13
2018-11-01T02:16:26.800Z,3.13
2018-11-01T02:18:55.236Z,3.50
2018-11-01T02:21:24.664Z,2.90
2018-11-01T02:23:53.079Z,3.10
2018-11-01T02:26:21.521Z,2.73
2018-11-01T02:28:49.945Z,3.00
2018-11-01T02:31:18.435Z,2.70
2018-11-01T02:33:46.829Z,2.83
2018-11-01T02:36:15.224Z,2.90
2018-11-01T02:38:43.756Z,3.03
2018-11-01T02:41:12.135Z,2.77
2018-11-01T02:43:40.628Z,2.97
2018-11-01T02:46:09.477Z,2.67
2018-11-01T02:48:38.086Z,2.80
2018-11-01T02:51:06.583Z,3.17
2018-11-01T02:53:34.994Z,2.90
2018-11-01T02:56:03.528Z,3.30
2018-11-01T02:58:31.924Z,3.23
2018-11-01T03:01:00.352Z,3.00
2018-11-01T03:03:28.737Z,3.10
2018-11-01T03:05:57.257Z,2.97
2018-11-01T03:08:25.648Z,2.97
2018-11-01T03:10:54.289Z,3.07
2018-11-01T03:13:22.739Z,3.20
2018-11-01T03:15:51.160Z,2.90
2018-11-01T03:18:19.526Z,2.93
2018-11-01T03:20:47.978Z,3.27
2018-11-01T03:23:16.377Z,3.07
2018-11-01T03:25:44.940Z,2.70
2018-11-01T03:28:13.396Z,3.20
2018-11-01T03:30:41.851Z,2.80
2018-11-01T03:33:10.240Z,3.00
2018-11-01T03:35:38.661Z,2.87
2018-11-01T03:38:07.098Z,2.80
2018-11-01T03:40:35.483Z,2.80
2018-11-01T03:43:03.974Z,2.87
2018-11-01T03:45:32.414Z,3.23
2018-11-01T03:48:00.988Z,3.00
2018-11-01T03:50:29.744Z,3.53
2018-11-01T03:52:58.105Z,2.80
2018-11-01T03:55:26.506Z,2.90
2018-11-01T03:57:54.913Z,2.77
2018-11-01T04:00:23.327Z,2.80
2018-11-01T04:02:51.697Z,2.77
2018-11-01T04:05:20.057Z,2.60
2018-11-01T04:07:48.450Z,2.90
2018-11-01T04:10:16.823Z,2.80
2018-11-01T04:12:45.229Z,2.70
2018-11-01T04:15:14.551Z,2.77
2018-11-01T04:17:43.157Z,2.60
2018-11-01T04:20:12.719Z,2.87
2018-11-01T04:22:41.792Z,2.50
2018-11-01T04:25:10.205Z,3.00
2018-11-01T04:27:38.793Z,2.87
2018-11-01T04:30:08.052Z,3.10
2018-11-01T04:32:36.426Z,3.00
2018-11-01T04:35:05.448Z,3.03
2018-11-01T04:37:33.817Z,3.23
2018-11-01T04:40:02.322Z,3.10
2018-11-01T04:42:30.684Z,2.80
2018-11-01T04:44:59.100Z,2.87
2018-11-01T04:47:27.553Z,2.67
2018-11-01T04:49:55.971Z,2.63
2018-11-01T04:52:24.369Z,2.70
2018-11-01T04:54:52.751Z,2.77
2018-11-01T04:57:21.143Z,2.70
2018-11-01T04:59:49.528Z,2.80
2018-11-01T05:02:18.047Z,2.77
2018-11-01T05:04:46.729Z,2.77
2018-11-01T05:07:15.182Z,2.70
2018-11-01T05:09:43.607Z,2.90
2018-11-01T05:12:12.027Z,3.00
2018-11-01T05:14:40.429Z,2.80
2018-11-01T05:17:08.823Z,2.60
2018-11-01T05:19:37.200Z,2.80
2018-11-01T05:22:05.608Z,2.77
2018-11-01T05:24:34.011Z,2.90
2018-11-01T05:27:02.350Z,2.53
2018-11-01T05:29:30.812Z,2.80
2018-11-01T05:31:59.209Z,2.90
2018-11-01T05:34:27.672Z,2.70
2018-11-01T05:36:56.203Z,2.83
2018-11-01T05:39:24.596Z,2.80
2018-11-01T05:41:53.012Z,3.33
2018-11-01T05:44:21.369Z,2.87
2018-11-01T05:46:49.768Z,3.13
2018-11-01T05:49:18.197Z,3.30
2018-11-01T05:51:46.562Z,3.17
2018-11-01T05:54:15.227Z,2.90
2018-11-01T05:56:43.641Z,3.23
2018-11-01T05:59:12.083Z,3.03
2018-11-01T06:01:45.776Z,3.30
2018-11-01T06:04:14.172Z,3.03
2018-11-01T06:06:42.564Z,3.40
2018-11-01T06:09:15.160Z,3.10
2018-11-01T06:11:43.552Z,3.20
2018-11-01T06:14:11.957Z,3.43
2018-11-01T06:16:40.509Z,2.90
2018-11-01T06:19:09.152Z,3.27
2018-11-01T06:21:37.669Z,3.40
2018-11-01T06:24:06.052Z,3.27
2018-11-01T06:26:34.684Z,3.23
2018-11-01T06:29:03.120Z,3.17
2018-11-01T06:31:31.524Z,3.10
2018-11-01T06:33:59.923Z,3.27
2018-11-01T06:36:28.351Z,3.20
2018-11-01T06:38:56.732Z,2.80
2018-11-01T06:41:25.143Z,3.00
2018-11-01T06:43:53.556Z,3.10
2018-11-01T06:46:21.943Z,3.50
2018-11-01T06:48:50.348Z,3.20
2018-11-01T06:51:18.740Z,3.00
2018-11-01T06:53:47.133Z,3.00
2018-11-01T06:56:15.504Z,3.00
2018-11-01T06:58:44.014Z,3.30
2018-11-01T07:01:12.328Z,3.93
2018-11-01T07:03:40.716Z,3.30
2018-11-01T07:06:09.178Z,5.27
2018-11-01T07:08:37.544Z,3.00
2018-11-01T07:11:06.298Z,2.77
2018-11-01T07:13:34.712Z,2.80
2018-11-01T07:16:03.161Z,3.03
2018-11-01T07:18:31.571Z,2.73
2018-11-01T07:20:59.984Z,2.83
2018-11-01T07:23:28.356Z,2.33
2018-11-01T07:25:56.862Z,3.00
2018-11-01T07:28:25.152Z,2.70
2018-11-01T07:30:53.585Z,2.47
2018-11-01T07:33:22.024Z,2.77
2018-11-01T07:35:50.418Z,2.83
2018-11-01T07:38:18.836Z,2.73
2018-11-01T07:40:47.192Z,3.03
2018-11-01T07:43:15.601Z,3.07
2018-11-01T07:45:44.182Z,2.83
2018-11-01T07:48:13.076Z,2.57
2018-11-01T07:50:41.562Z,2.73
2018-11-01T07:53:10.027Z,2.70
2018-11-01T07:55:38.442Z,2.70
2018-11-01T07:58:06.904Z,3.13
2018-11-01T08:00:35.288Z,3.23
2018-11-01T08:03:03.729Z,3.17
2018-11-01T08:05:32.184Z,3.30
2018-11-01T08:08:00.630Z,2.90
2018-11-01T08:10:29.032Z,3.07
2018-11-01T08:12:57.568Z,2.90
2018-11-01T08:15:26.009Z,3.00
2018-11-01T08:17:54.491Z,3.40
2018-11-01T08:20:23.113Z,18.43
2018-11-01T08:22:51.316Z,6.93
2018-11-01T08:25:19.757Z,5.00
2018-11-01T08:27:48.255Z,4.77
2018-11-01T08:30:17.517Z,4.30
2018-11-01T08:32:45.995Z,4.30
2018-11-01T08:35:14.598Z,3.90
2018-11-01T08:37:44.116Z,3.43
2018-11-01T08:40:12.921Z,3.40
2018-11-01T08:42:42.000Z,3.70
2018-11-01T08:45:12.117Z,3.40
2018-11-01T08:47:41.075Z,3.50
2018-11-01T08:50:11.208Z,3.30
2018-11-01T08:52:40.326Z,3.47
2018-11-01T08:55:09.211Z,3.20
2018-11-01T08:57:37.639Z,3.30
2018-11-01T09:00:06.990Z,3.87
2018-11-01T09:02:35.378Z,3.13
2018-11-01T09:05:03.804Z,3.60
2018-11-01T09:07:32.279Z,5.47
2018-11-01T09:10:00.619Z,13.13
2018-11-01T09:12:29.158Z,6.03
2018-11-01T09:14:57.588Z,3.30
2018-11-01T09:17:26.004Z,3.40
2018-11-01T09:19:54.420Z,3.27
2018-11-01T09:22:22.853Z,3.13
2018-11-01T09:24:51.249Z,3.23
2018-11-01T09:27:19.728Z,3.33
2018-11-01T09:29:48.083Z,3.60
2018-11-01T09:32:16.517Z,3.33
2018-11-01T09:34:44.898Z,3.20
2018-11-01T09:37:13.364Z,3.50
2018-11-01T09:39:41.778Z,3.23
2018-11-01T09:42:10.192Z,3.30
2018-11-01T09:44:38.596Z,3.13
2018-11-01T09:47:07.278Z,3.40
2018-11-01T09:49:35.505Z,3.10
2018-11-01T09:52:03.936Z,3.17
2018-11-01T09:54:32.375Z,3.53
2018-11-01T09:57:00.833Z,3.43
2018-11-01T09:59:29.229Z,3.20
2018-11-01T10:01:57.688Z,3.50
2018-11-01T10:04:26.116Z,3.13
2018-11-01T10:06:54.575Z,2.90
2018-11-01T10:09:23.044Z,3.23
2018-11-01T10:11:51.549Z,3.77
2018-11-01T10:14:20.029Z,4.10
2018-11-01T10:16:48.684Z,4.57
2018-11-01T10:19:16.878Z,4.37
2018-11-01T10:21:45.330Z,4.37
2018-11-01T10:24:13.785Z,3.83
2018-11-01T10:26:42.254Z,3.80
2018-11-01T10:29:10.718Z,3.50
2018-11-01T10:31:39.107Z,3.27
2018-11-01T10:34:07.695Z,3.07
2018-11-01T10:36:36.079Z,3.10
2018-11-01T10:39:06.968Z,3.10
2018-11-01T10:41:35.544Z,3.10
2018-11-01T10:44:04.153Z,3.27
2018-11-01T10:46:32.650Z,3.10
2018-11-01T10:49:01.111Z,3.23
2018-11-01T10:51:29.964Z,3.20
2018-11-01T10:53:58.443Z,3.17
2018-11-01T10:56:26.867Z,3.20
2018-11-01T10:58:55.532Z,3.10
2018-11-01T11:01:29.462Z,3.57
2018-11-01T11:03:57.886Z,3.23
2018-11-01T11:06:26.314Z,3.03
2018-11-01T11:08:54.742Z,26.60
2018-11-01T11:11:23.209Z,34.37
2018-11-01T11:13:51.579Z,4.87
2018-11-01T11:16:20.010Z,3.37
2018-11-01T11:18:48.601Z,3.20
2018-11-01T11:21:17.372Z,3.03
2018-11-01T11:23:45.517Z,3.37
2018-11-01T11:26:14.023Z,3.10
2018-11-01T11:28:42.480Z,3.33
2018-11-01T11:31:10.920Z,3.20
2018-11-01T11:33:39.497Z,2.97
2018-11-01T11:36:07.985Z,3.40
2018-11-01T11:38:36.379Z,2.90
2018-11-01T11:41:04.993Z,3.20
2018-11-01T11:43:33.525Z,3.40
2018-11-01T11:46:01.929Z,3.17
2018-11-01T11:48:30.337Z,3.47
2018-11-01T11:50:58.745Z,3.60
2018-11-01T11:53:27.260Z,3.97
2018-11-01T11:55:55.688Z,3.50
2018-11-01T11:58:24.183Z,4.23
2018-11-01T12:00:52.809Z,4.13
2018-11-01T12:03:21.288Z,12.70
2018-11-01T12:05:50.058Z,23.77
2018-11-01T12:08:18.651Z,6.53
2018-11-01T12:10:47.415Z,4.10
2018-11-01T12:13:15.833Z,3.50
2018-11-01T12:15:44.225Z,3.50
2018-11-01T12:18:12.900Z,4.10
2018-11-01T12:20:41.334Z,3.70
2018-11-01T12:23:09.883Z,3.97
2018-11-01T12:25:38.342Z,3.73
2018-11-01T12:28:06.853Z,3.93
2018-11-01T12:30:35.298Z,4.17
2018-11-01T12:33:03.721Z,3.80
2018-11-01T12:35:32.168Z,3.70
2018-11-01T12:38:00.633Z,3.50
2018-11-01T12:40:29.249Z,3.87
2018-11-01T12:42:57.705Z,4.00
2018-11-01T12:45:26.137Z,3.73
2018-11-01T12:47:54.784Z,3.50
2018-11-01T12:50:23.340Z,3.63
2018-11-01T12:52:51.705Z,3.73
2018-11-01T12:55:20.111Z,3.93
2018-11-01T12:57:48.513Z,3.90
2018-11-01T13:00:16.913Z,3.60
2018-11-01T13:02:45.329Z,3.90
2018-11-01T13:05:13.752Z,4.37
2018-11-01T13:07:42.498Z,4.27
2018-11-01T13:10:10.924Z,4.47
2018-11-01T13:12:39.377Z,4.33
2018-11-01T13:15:09.608Z,4.53
2018-11-01T13:17:38.023Z,4.90
2018-11-01T13:20:06.616Z,4.20
2018-11-01T13:22:35.064Z,4.60
2018-11-01T13:25:03.549Z,5.00
2018-11-01T13:27:31.983Z,4.33
2018-11-01T13:30:00.402Z,4.80
2018-11-01T13:32:28.830Z,4.40
2018-11-01T13:34:57.334Z,4.20
2018-11-01T13:37:25.922Z,4.70
2018-11-01T13:39:54.459Z,4.50
2018-11-01T13:42:22.840Z,4.57
2018-11-01T13:44:51.278Z,4.80
2018-11-01T13:47:19.832Z,4.20
2018-11-01T13:49:48.164Z,4.70
2018-11-01T13:52:16.630Z,4.53
2018-11-01T13:54:45.234Z,4.73
2018-11-01T13:57:13.717Z,4.67
2018-11-01T13:59:42.192Z,5.03
2018-11-01T14:02:10.648Z,4.93
2018-11-01T14:04:39.449Z,5.30
2018-11-01T14:07:08.016Z,5.07
2018-11-01T14:09:36.537Z,5.30
2018-11-01T14:12:05.401Z,5.23
2018-11-01T14:14:35.258Z,5.40
2018-11-01T14:17:03.478Z,4.93
2018-11-01T14:19:31.933Z,5.90
2018-11-01T14:22:00.340Z,6.00
2018-11-01T14:24:28.860Z,5.90
2018-11-01T14:26:57.313Z,5.97
2018-11-01T14:29:25.754Z,5.73
2018-11-01T14:31:54.185Z,5.47
2018-11-01T14:34:22.640Z,6.10
2018-11-01T14:36:51.092Z,5.83
2018-11-01T14:39:19.651Z,5.27
2018-11-01T14:41:48.100Z,4.83
2018-11-01T14:44:16.613Z,5.73
2018-11-01T14:46:45.110Z,6.37
2018-11-01T14:49:13.889Z,5.80
2018-11-01T14:51:42.352Z,5.83
2018-11-01T14:54:11.689Z,5.53
2018-11-01T14:56:40.906Z,5.87
2018-11-01T14:59:09.635Z,6.57
2018-11-01T15:01:36.068Z,6.33
2018-11-01T15:04:04.505Z,6.37
2018-11-01T15:06:32.981Z,6.37
2018-11-01T15:09:01.326Z,6.73
2018-11-01T15:11:29.764Z,7.10
2018-11-01T15:13:58.176Z,7.00
2018-11-01T15:16:27.188Z,7.10
2018-11-01T15:18:55.640Z,7.30
2018-11-01T15:21:24.073Z,6.93
2018-11-01T15:23:52.804Z,6.80
2018-11-01T15:26:21.350Z,6.83
2018-11-01T15:28:50.201Z,7.03
2018-11-01T15:31:18.642Z,6.87
2018-11-01T15:33:47.327Z,6.90
2018-11-01T15:36:15.819Z,7.53
2018-11-01T15:38:44.337Z,6.50
2018-11-01T15:41:14.030Z,7.60
2018-11-01T15:43:43.057Z,7.40
2018-11-01T15:46:12.289Z,7.50
2018-11-01T15:48:41.309Z,6.90
2018-11-01T15:51:10.773Z,7.10
2018-11-01T15:53:41.437Z,8.00
2018-11-01T15:56:09.909Z,8.40
2018-11-01T15:58:38.308Z,7.90
2018-11-01T16:01:06.832Z,8.50
2018-11-01T16:03:35.333Z,8.63
2018-11-01T16:06:04.671Z,7.37
2018-11-01T16:08:33.094Z,9.20
2018-11-01T16:11:01.523Z,8.20
2018-11-01T16:13:30.176Z,7.73
2018-11-01T16:15:58.695Z,7.47
2018-11-01T16:18:27.202Z,7.10
2018-11-01T16:20:56.440Z,8.90
2018-11-01T16:23:24.895Z,7.33
2018-11-01T16:25:54.492Z,8.00
2018-11-01T16:28:22.973Z,8.23
2018-11-01T16:30:51.481Z,6.80
2018-11-01T16:33:19.969Z,7.50
2018-11-01T16:35:48.528Z,7.80
2018-11-01T16:38:16.957Z,6.90
2018-11-01T16:40:45.382Z,7.53
2018-11-01T16:43:13.807Z,7.77
2018-11-01T16:45:42.255Z,7.90
2018-11-01T16:48:11.500Z,6.73
2018-11-01T16:50:39.923Z,7.00
2018-11-01T16:53:08.354Z,7.37
2018-11-01T16:55:36.808Z,7.07
2018-11-01T16:58:05.338Z,7.00
2018-11-01T17:00:34.741Z,7.13
2018-11-01T17:03:03.138Z,7.03
2018-11-01T17:05:31.779Z,6.60
2018-11-01T17:08:00.387Z,6.57
2018-11-01T17:10:28.816Z,6.70
2018-11-01T17:12:57.249Z,8.20
2018-11-01T17:15:27.945Z,7.60
2018-11-01T17:17:56.383Z,6.90
2018-11-01T17:20:24.793Z,7.47
2018-11-01T17:22:53.317Z,7.73
2018-11-01T17:25:21.873Z,6.77
2018-11-01T17:27:50.348Z,7.23
2018-11-01T17:30:18.848Z,9.07
2018-11-01T17:32:48.683Z,7.33
2018-11-01T17:35:17.756Z,7.70
2018-11-01T17:37:46.256Z,9.03
2018-11-01T17:40:14.748Z,7.50
2018-11-01T17:42:44.149Z,7.83
2018-11-01T17:45:12.668Z,7.07
2018-11-01T17:47:41.534Z,8.17
2018-11-01T17:50:12.164Z,7.50
2018-11-01T17:52:41.228Z,8.27
2018-11-01T17:55:09.677Z,8.67
2018-11-01T17:57:38.598Z,7.50
2018-11-01T18:00:09.277Z,7.93
2018-11-01T18:02:37.898Z,8.50
2018-11-01T18:05:07.421Z,9.10
2018-11-01T18:07:36.114Z,8.93
2018-11-01T18:10:05.129Z,9.37
2018-11-01T18:12:33.691Z,8.73
2018-11-01T18:15:02.115Z,13.57
2018-11-01T18:17:30.679Z,8.47
2018-11-01T18:19:59.120Z,9.37
2018-11-01T18:22:27.563Z,8.03
2018-11-01T18:24:56.010Z,9.27
2018-11-01T18:27:24.466Z,9.40
2018-11-01T18:29:52.972Z,10.07
2018-11-01T18:32:21.452Z,9.85
2018-11-01T18:34:49.873Z,9.70
2018-11-01T18:37:18.355Z,9.93
2018-11-01T18:39:46.877Z,9.70
2018-11-01T18:42:15.345Z,9.77
2018-11-01T18:44:43.801Z,9.83
2018-11-01T18:47:12.378Z,10.00
2018-11-01T18:49:40.862Z,8.13
2018-11-01T18:52:09.286Z,10.13
2018-11-01T18:54:38.198Z,10.10
2018-11-01T18:57:07.006Z,8.87
2018-11-01T18:59:35.495Z,9.63
2018-11-01T19:02:03.968Z,9.63
2018-11-01T19:04:32.380Z,10.00
2018-11-01T19:07:00.913Z,8.53
2018-11-01T19:09:29.335Z,8.33
2018-11-01T19:11:57.926Z,8.97
2018-11-01T19:14:26.323Z,8.97
2018-11-01T19:16:54.749Z,7.03
2018-11-01T19:19:23.306Z,7.87
2018-11-01T19:21:51.806Z,7.83
2018-11-01T19:24:20.230Z,7.30
2018-11-01T19:26:48.702Z,7.00
2018-11-01T19:29:17.085Z,8.10
2018-11-01T19:31:45.528Z,8.27
2018-11-01T19:34:14.096Z,8.23
2018-11-01T19:36:42.456Z,7.87
2018-11-01T19:39:12.068Z,7.33
2018-11-01T19:41:40.473Z,7.87
2018-11-01T19:44:08.903Z,7.10
2018-11-01T19:46:37.485Z,7.87
2018-11-01T19:49:06.005Z,7.33
2018-11-01T19:51:34.512Z,7.53
2018-11-01T19:54:02.997Z,7.67
2018-11-01T19:56:31.432Z,8.43
2018-11-01T19:58:59.905Z,7.90
2018-11-01T20:01:28.425Z,7.97
2018-11-01T20:03:56.814Z,8.50
2018-11-01T20:06:25.247Z,7.50
2018-11-01T20:08:53.914Z,9.10
2018-11-01T20:11:22.270Z,8.20
2018-11-01T20:13:50.659Z,8.77
2018-11-01T20:16:19.069Z,8.90
2018-11-01T20:18:47.578Z,7.60
2018-11-01T20:21:15.946Z,7.57
2018-11-01T20:23:44.504Z,7.53
2018-11-01T20:26:13.040Z,8.20
2018-11-01T20:28:41.532Z,7.80
2018-11-01T20:31:10.775Z,7.90
2018-11-01T20:33:39.331Z,8.23
2018-11-01T20:36:07.714Z,9.43
2018-11-01T20:38:36.350Z,8.00
2018-11-01T20:41:04.822Z,7.57
2018-11-01T20:43:33.239Z,7.87
2018-11-01T20:46:01.672Z,8.03
2018-11-01T20:48:30.190Z,9.43
2018-11-01T20:50:58.620Z,9.97
2018-11-01T20:53:27.165Z,9.33
2018-11-01T20:55:55.813Z,9.47
2018-11-01T20:58:24.252Z,8.40
2018-11-01T21:00:52.658Z,9.37
2018-11-01T21:03:21.084Z,9.70
2018-11-01T21:05:49.518Z,10.77
2018-11-01T21:08:18.196Z,10.17
2018-11-01T21:10:46.847Z,10.40
2018-11-01T21:13:15.338Z,9.50
2018-11-01T21:15:43.753Z,11.13
2018-11-01T21:18:12.276Z,9.80
2018-11-01T21:20:41.050Z,11.40
2018-11-01T21:23:09.680Z,11.13
2018-11-01T21:25:38.167Z,12.73
2018-11-01T21:28:06.641Z,11.27
2018-11-01T21:30:35.245Z,10.87
2018-11-01T21:33:03.902Z,10.77
2018-11-01T21:35:32.487Z,11.57
2018-11-01T21:38:00.785Z,13.67
2018-11-01T21:40:29.197Z,11.80
2018-11-01T21:42:57.693Z,12.47
2018-11-01T21:45:26.137Z,11.50
2018-11-01T21:47:54.605Z,11.10
2018-11-01T21:50:23.718Z,10.73
2018-11-01T21:52:52.390Z,11.30
2018-11-01T21:55:20.824Z,11.40
2018-11-01T21:57:49.260Z,10.63
2018-11-01T22:00:17.733Z,11.97
2018-11-01T22:02:46.209Z,12.73
2018-11-01T22:05:14.665Z,12.03
2018-11-01T22:07:43.089Z,10.13
2018-11-01T22:10:11.821Z,10.40
2018-11-01T22:12:40.250Z,11.03
2018-11-01T22:15:10.700Z,9.63
2018-11-01T22:17:39.923Z,10.67
2018-11-01T22:20:09.316Z,10.30
2018-11-01T22:22:38.004Z,10.73
2018-11-01T22:25:07.278Z,9.77
2018-11-01T22:27:35.789Z,9.57
2018-11-01T22:30:05.509Z,8.97
2018-11-01T22:32:34.000Z,9.20
2018-11-01T22:35:02.761Z,7.90
2018-11-01T22:37:31.298Z,9.03
2018-11-01T22:39:59.894Z,9.57
2018-11-01T22:42:29.340Z,9.93
2018-11-01T22:44:57.825Z,9.30
2018-11-01T22:47:26.327Z,9.23
2018-11-01T22:49:54.793Z,8.70
2018-11-01T22:52:23.221Z,9.07
2018-11-01T22:54:51.824Z,8.40
2018-11-01T22:57:20.312Z,7.50
2018-11-01T22:59:48.851Z,8.00
2018-11-01T23:02:17.187Z,8.30
2018-11-01T23:04:45.588Z,8.90
2018-11-01T23:07:14.002Z,9.30
2018-11-01T23:09:42.528Z,9.23
2018-11-01T23:12:10.946Z,8.43
2018-11-01T23:14:39.422Z,10.07
2018-11-01T23:17:07.921Z,10.17
2018-11-01T23:19:36.400Z,10.50
2018-11-01T23:22:05.059Z,8.10
2018-11-01T23:24:33.493Z,9.23
2018-11-01T23:27:01.994Z,9.67
2018-11-01T23:29:30.436Z,9.90
2018-11-01T23:31:58.828Z,9.17
2018-11-01T23:34:27.272Z,9.10
2018-11-01T23:37:01.070Z,9.57
2018-11-01T23:39:34.819Z,8.97
2018-11-01T23:42:08.660Z,8.97
2018-11-01T23:44:42.485Z,9.10
2018-11-01T23:47:16.417Z,9.70
2018-11-01T23:49:50.173Z,9.47
2018-11-01T23:52:20.651Z,8.60
2018-11-01T23:54:49.605Z,9.67
2018-11-01T23:57:18.069Z,9.03
2018-11-01T23:59:46.753Z,7.47
